sensor_id;sensor_type;location;lat;lon;timestamp;P1;durP1;ratioP1;P2;durP2;ratioP2
828;SDS011;396;52.558;13.188;2023-05-10T00:00:26;9.90;;;3.13;;
828;SDS011;396;52.558;13.188;2023-05-10T00:02:53;8.57;;;3.40;;
828;SDS011;396;52.558;13.188;2023-05-10T00:05:20;8.00;;;3.00;;
828;SDS011;396;52.558;13.188;2023-05-10T00:07:46;8.70;;;3.23;;
828;SDS011;396;52.558;13.188;2023-05-10T00:10:13;7.90;;;2.97;;
828;SDS011;396;52.558;13.188;2023-05-10T00:12:41;16.43;;;4.10;;
828;SDS011;396;52.558;13.188;2023-05-10T00:15:08;9.77;;;3.10;;
828;SDS011;396;52.558;13.188;2023-05-10T00:17:35;7.70;;;3.00;;
828;SDS011;396;52.558;13.188;2023-05-10T00:20:02;7.23;;;3.40;;
828;SDS011;396;52.558;13.188;2023-05-10T00:22:29;8.43;;;3.17;;
828;SDS011;396;52.558;13.188;2023-05-10T00:24:56;10.10;;;3.50;;
828;SDS011;396;52.558;13.188;2023-05-10T00:27:23;9.80;;;2.80;;
828;SDS011;396;52.558;13.188;2023-05-10T00:29:51;8.30;;;3.33;;
828;SDS011;396;52.558;13.188;2023-05-10T00:32:17;13.23;;;3.37;;
828;SDS011;396;52.558;13.188;2023-05-10T00:34:44;16.63;;;3.80;;
828;SDS011;396;52.558;13.188;2023-05-10T00:37:11;9.03;;;3.13;;
828;SDS011;396;52.558;13.188;2023-05-10T00:39:37;8.10;;;3.53;;
828;SDS011;396;52.558;13.188;2023-05-10T00:42:04;12.63;;;3.47;;
828;SDS011;396;52.558;13.188;2023-05-10T00:44:30;9.43;;;3.57;;
828;SDS011;396;52.558;13.188;2023-05-10T00:46:58;7.83;;;2.97;;
828;SDS011;396;52.558;13.188;2023-05-10T00:49:25;7.87;;;3.53;;
828;SDS011;396;52.558;13.188;2023-05-10T00:51:52;8.00;;;3.27;;
828;SDS011;396;52.558;13.188;2023-05-10T00:54:19;8.77;;;3.60;;
828;SDS011;396;52.558;13.188;2023-05-10T00:56:46;10.17;;;4.03;;
828;SDS011;396;52.558;13.188;2023-05-10T00:59:14;10.20;;;3.17;;
828;SDS011;396;52.558;13.188;2023-05-10T01:01:41;7.50;;;2.40;;
828;SDS011;396;52.558;13.188;2023-05-10T01:04:09;11.20;;;3.50;;
828;SDS011;396;52.558;13.188;2023-05-10T01:06:37;10.90;;;4.30;;
828;SDS011;396;52.558;13.188;2023-05-10T01:09:04;7.60;;;2.73;;
828;SDS011;396;52.558;13.188;2023-05-10T01:11:31;10.13;;;3.37;;
828;SDS011;396;52.558;13.188;2023-05-10T01:13:58;9.27;;;3.50;;
828;SDS011;396;52.558;13.188;2023-05-10T01:16:25;6.83;;;3.07;;
828;SDS011;396;52.558;13.188;2023-05-10T01:18:53;9.93;;;3.23;;
828;SDS011;396;52.558;13.188;2023-05-10T01:21:23;12.20;;;3.47;;
828;SDS011;396;52.558;13.188;2023-05-10T01:24:09;9.47;;;3.53;;
828;SDS011;396;52.558;13.188;2023-05-10T01:27:02;8.93;;;3.40;;
828;SDS011;396;52.558;13.188;2023-05-10T01:29:51;7.80;;;3.00;;
828;SDS011;396;52.558;13.188;2023-05-10T01:32:40;9.93;;;3.73;;
828;SDS011;396;52.558;13.188;2023-05-10T01:35:14;10.23;;;3.30;;
828;SDS011;396;52.558;13.188;2023-05-10T01:37:44;10.10;;;3.50;;
828;SDS011;396;52.558;13.188;2023-05-10T01:40:17;6.93;;;2.80;;
828;SDS011;396;52.558;13.188;2023-05-10T01:42:50;8.70;;;4.10;;
828;SDS011;396;52.558;13.188;2023-05-10T01:45:21;9.10;;;3.47;;
828;SDS011;396;52.558;13.188;2023-05-10T01:47:57;12.17;;;4.07;;
828;SDS011;396;52.558;13.188;2023-05-10T01:50:29;9.00;;;4.00;;
828;SDS011;396;52.558;13.188;2023-05-10T01:52:57;8.63;;;3.80;;
828;SDS011;396;52.558;13.188;2023-05-10T01:55:27;9.00;;;3.53;;
828;SDS011;396;52.558;13.188;2023-05-10T01:57:58;8.93;;;3.77;;
828;SDS011;396;52.558;13.188;2023-05-10T02:00:29;11.77;;;3.93;;
828;SDS011;396;52.558;13.188;2023-05-10T02:02:59;8.97;;;3.90;;
828;SDS011;396;52.558;13.188;2023-05-10T02:05:30;14.40;;;3.80;;
828;SDS011;396;52.558;13.188;2023-05-10T02:07:59;8.20;;;3.63;;
828;SDS011;396;52.558;13.188;2023-05-10T02:10:27;8.43;;;3.83;;
828;SDS011;396;52.558;13.188;2023-05-10T02:12:54;8.57;;;3.63;;
828;SDS011;396;52.558;13.188;2023-05-10T02:15:24;7.33;;;3.33;;
828;SDS011;396;52.558;13.188;2023-05-10T02:17:52;8.63;;;3.63;;
828;SDS011;396;52.558;13.188;2023-05-10T02:20:22;8.83;;;3.50;;
828;SDS011;396;52.558;13.188;2023-05-10T02:22:51;9.20;;;3.40;;
828;SDS011;396;52.558;13.188;2023-05-10T02:25:20;7.60;;;3.80;;
828;SDS011;396;52.558;13.188;2023-05-10T02:27:48;9.10;;;3.40;;
828;SDS011;396;52.558;13.188;2023-05-10T02:30:16;9.10;;;3.67;;
828;SDS011;396;52.558;13.188;2023-05-10T02:32:44;10.10;;;3.97;;
828;SDS011;396;52.558;13.188;2023-05-10T02:35:11;8.10;;;3.13;;
828;SDS011;396;52.558;13.188;2023-05-10T02:37:40;9.10;;;3.50;;
828;SDS011;396;52.558;13.188;2023-05-10T02:40:08;9.53;;;4.37;;
828;SDS011;396;52.558;13.188;2023-05-10T02:42:37;7.53;;;3.50;;
828;SDS011;396;52.558;13.188;2023-05-10T02:45:06;8.73;;;3.87;;
828;SDS011;396;52.558;13.188;2023-05-10T02:47:37;7.90;;;3.47;;
828;SDS011;396;52.558;13.188;2023-05-10T02:50:04;12.43;;;3.50;;
828;SDS011;396;52.558;13.188;2023-05-10T02:52:36;7.50;;;3.00;;
828;SDS011;396;52.558;13.188;2023-05-10T02:55:09;16.40;;;4.10;;
828;SDS011;396;52.558;13.188;2023-05-10T02:57:40;7.23;;;3.00;;
828;SDS011;396;52.558;13.188;2023-05-10T03:00:09;11.33;;;3.83;;
828;SDS011;396;52.558;13.188;2023-05-10T03:02:37;10.93;;;3.20;;
828;SDS011;396;52.558;13.188;2023-05-10T03:05:03;9.40;;;3.37;;
828;SDS011;396;52.558;13.188;2023-05-10T03:07:30;7.37;;;3.47;;
828;SDS011;396;52.558;13.188;2023-05-10T03:09:59;8.20;;;3.40;;
828;SDS011;396;52.558;13.188;2023-05-10T03:12:27;9.50;;;3.63;;
828;SDS011;396;52.558;13.188;2023-05-10T03:15:03;11.10;;;3.93;;
828;SDS011;396;52.558;13.188;2023-05-10T03:17:36;8.37;;;3.27;;
828;SDS011;396;52.558;13.188;2023-05-10T03:20:10;6.83;;;3.40;;
828;SDS011;396;52.558;13.188;2023-05-10T03:22:40;6.83;;;3.00;;
828;SDS011;396;52.558;13.188;2023-05-10T03:25:14;10.57;;;3.83;;
828;SDS011;396;52.558;13.188;2023-05-10T03:27:43;9.17;;;3.30;;
828;SDS011;396;52.558;13.188;2023-05-10T03:30:10;8.10;;;3.20;;
828;SDS011;396;52.558;13.188;2023-05-10T03:32:38;7.87;;;3.10;;
828;SDS011;396;52.558;13.188;2023-05-10T03:35:06;7.90;;;3.30;;
828;SDS011;396;52.558;13.188;2023-05-10T03:37:33;9.80;;;3.70;;
828;SDS011;396;52.558;13.188;2023-05-10T03:40:00;7.30;;;2.90;;
828;SDS011;396;52.558;13.188;2023-05-10T03:42:28;12.97;;;3.30;;
828;SDS011;396;52.558;13.188;2023-05-10T03:44:55;9.37;;;3.70;;
828;SDS011;396;52.558;13.188;2023-05-10T03:47:22;9.17;;;3.10;;
828;SDS011;396;52.558;13.188;2023-05-10T03:49:49;7.50;;;2.70;;
828;SDS011;396;52.558;13.188;2023-05-10T03:52:15;9.77;;;3.40;;
828;SDS011;396;52.558;13.188;2023-05-10T03:54:43;7.30;;;2.97;;
828;SDS011;396;52.558;13.188;2023-05-10T03:57:09;9.40;;;3.70;;
828;SDS011;396;52.558;13.188;2023-05-10T03:59:37;8.77;;;3.13;;
828;SDS011;396;52.558;13.188;2023-05-10T04:02:04;11.27;;;3.87;;
828;SDS011;396;52.558;13.188;2023-05-10T04:04:31;7.40;;;3.10;;
828;SDS011;396;52.558;13.188;2023-05-10T04:06:57;7.83;;;2.60;;
828;SDS011;396;52.558;13.188;2023-05-10T04:09:24;9.27;;;3.20;;
828;SDS011;396;52.558;13.188;2023-05-10T04:11:51;10.40;;;2.83;;
828;SDS011;396;52.558;13.188;2023-05-10T04:14:17;9.70;;;3.40;;
828;SDS011;396;52.558;13.188;2023-05-10T04:16:45;11.43;;;3.37;;
828;SDS011;396;52.558;13.188;2023-05-10T04:19:12;12.70;;;3.57;;
828;SDS011;396;52.558;13.188;2023-05-10T04:21:38;10.30;;;3.07;;
828;SDS011;396;52.558;13.188;2023-05-10T04:24:05;8.23;;;3.00;;
828;SDS011;396;52.558;13.188;2023-05-10T04:26:32;13.80;;;3.93;;
828;SDS011;396;52.558;13.188;2023-05-10T04:28:58;6.43;;;2.60;;
828;SDS011;396;52.558;13.188;2023-05-10T04:31:25;7.53;;;2.83;;
828;SDS011;396;52.558;13.188;2023-05-10T04:33:54;7.57;;;2.90;;
828;SDS011;396;52.558;13.188;2023-05-10T04:36:20;7.57;;;3.10;;
828;SDS011;396;52.558;13.188;2023-05-10T04:38:47;8.63;;;3.13;;
828;SDS011;396;52.558;13.188;2023-05-10T04:41:14;7.77;;;3.13;;
828;SDS011;396;52.558;13.188;2023-05-10T04:43:40;9.50;;;3.20;;
828;SDS011;396;52.558;13.188;2023-05-10T04:46:07;8.60;;;3.60;;
828;SDS011;396;52.558;13.188;2023-05-10T04:48:33;7.43;;;2.90;;
828;SDS011;396;52.558;13.188;2023-05-10T04:51:01;9.37;;;3.63;;
828;SDS011;396;52.558;13.188;2023-05-10T04:53:29;7.43;;;2.80;;
828;SDS011;396;52.558;13.188;2023-05-10T04:55:56;7.40;;;2.60;;
828;SDS011;396;52.558;13.188;2023-05-10T04:58:23;9.67;;;2.90;;
828;SDS011;396;52.558;13.188;2023-05-10T05:00:49;7.67;;;3.40;;
828;SDS011;396;52.558;13.188;2023-05-10T05:03:16;9.47;;;2.90;;
828;SDS011;396;52.558;13.188;2023-05-10T05:05:43;12.50;;;2.87;;
828;SDS011;396;52.558;13.188;2023-05-10T05:08:11;8.43;;;3.20;;
828;SDS011;396;52.558;13.188;2023-05-10T05:10:37;7.83;;;2.60;;
828;SDS011;396;52.558;13.188;2023-05-10T05:13:04;5.80;;;2.00;;
828;SDS011;396;52.558;13.188;2023-05-10T05:15:31;6.47;;;2.47;;
828;SDS011;396;52.558;13.188;2023-05-10T05:17:57;6.90;;;2.60;;
828;SDS011;396;52.558;13.188;2023-05-10T05:20:24;6.50;;;2.50;;
828;SDS011;396;52.558;13.188;2023-05-10T05:22:50;6.40;;;2.17;;
828;SDS011;396;52.558;13.188;2023-05-10T05:25:18;11.80;;;3.00;;
828;SDS011;396;52.558;13.188;2023-05-10T05:27:45;10.80;;;2.90;;
828;SDS011;396;52.558;13.188;2023-05-10T05:30:11;7.50;;;2.87;;
828;SDS011;396;52.558;13.188;2023-05-10T05:32:38;5.70;;;2.00;;
828;SDS011;396;52.558;13.188;2023-05-10T05:35:05;9.70;;;2.57;;
828;SDS011;396;52.558;13.188;2023-05-10T05:37:32;6.30;;;2.50;;
828;SDS011;396;52.558;13.188;2023-05-10T05:39:58;6.30;;;2.17;;
828;SDS011;396;52.558;13.188;2023-05-10T05:42:28;6.90;;;2.03;;
828;SDS011;396;52.558;13.188;2023-05-10T05:44:54;6.17;;;2.43;;
828;SDS011;396;52.558;13.188;2023-05-10T05:47:21;8.57;;;2.33;;
828;SDS011;396;52.558;13.188;2023-05-10T05:49:47;6.40;;;2.07;;
828;SDS011;396;52.558;13.188;2023-05-10T05:52:14;9.83;;;3.10;;
828;SDS011;396;52.558;13.188;2023-05-10T05:54:41;6.17;;;2.37;;
828;SDS011;396;52.558;13.188;2023-05-10T05:57:07;6.63;;;2.33;;
828;SDS011;396;52.558;13.188;2023-05-10T05:59:35;7.10;;;2.40;;
828;SDS011;396;52.558;13.188;2023-05-10T06:02:06;8.27;;;2.07;;
828;SDS011;396;52.558;13.188;2023-05-10T06:04:33;6.77;;;2.07;;
828;SDS011;396;52.558;13.188;2023-05-10T06:07:00;10.20;;;2.50;;
828;SDS011;396;52.558;13.188;2023-05-10T06:09:26;8.97;;;1.90;;
828;SDS011;396;52.558;13.188;2023-05-10T06:11:53;5.80;;;2.00;;
828;SDS011;396;52.558;13.188;2023-05-10T06:14:20;5.73;;;1.90;;
828;SDS011;396;52.558;13.188;2023-05-10T06:16:48;12.70;;;2.90;;
828;SDS011;396;52.558;13.188;2023-05-10T06:19:15;6.93;;;2.13;;
828;SDS011;396;52.558;13.188;2023-05-10T06:21:41;7.10;;;2.73;;
828;SDS011;396;52.558;13.188;2023-05-10T06:24:08;7.67;;;2.30;;
828;SDS011;396;52.558;13.188;2023-05-10T06:26:34;8.03;;;2.50;;
828;SDS011;396;52.558;13.188;2023-05-10T06:29:02;6.27;;;2.13;;
828;SDS011;396;52.558;13.188;2023-05-10T06:31:28;8.83;;;2.00;;
828;SDS011;396;52.558;13.188;2023-05-10T06:33:56;7.50;;;2.70;;
828;SDS011;396;52.558;13.188;2023-05-10T06:36:23;8.03;;;2.20;;
828;SDS011;396;52.558;13.188;2023-05-10T06:38:51;13.60;;;2.60;;
828;SDS011;396;52.558;13.188;2023-05-10T06:41:17;6.43;;;2.13;;
828;SDS011;396;52.558;13.188;2023-05-10T06:43:44;5.30;;;1.50;;
828;SDS011;396;52.558;13.188;2023-05-10T06:46:11;6.43;;;2.17;;
828;SDS011;396;52.558;13.188;2023-05-10T06:48:37;8.47;;;2.40;;
828;SDS011;396;52.558;13.188;2023-05-10T06:51:05;6.00;;;1.93;;
828;SDS011;396;52.558;13.188;2023-05-10T06:53:32;6.77;;;1.83;;
828;SDS011;396;52.558;13.188;2023-05-10T06:55:58;6.43;;;1.90;;
828;SDS011;396;52.558;13.188;2023-05-10T06:58:25;5.90;;;1.60;;
828;SDS011;396;52.558;13.188;2023-05-10T07:00:52;6.37;;;1.90;;
828;SDS011;396;52.558;13.188;2023-05-10T07:03:18;5.80;;;1.83;;
828;SDS011;396;52.558;13.188;2023-05-10T07:05:45;5.93;;;1.60;;
828;SDS011;396;52.558;13.188;2023-05-10T07:08:13;6.80;;;2.10;;
828;SDS011;396;52.558;13.188;2023-05-10T07:10:39;6.27;;;1.80;;
828;SDS011;396;52.558;13.188;2023-05-10T07:13:06;10.40;;;2.10;;
828;SDS011;396;52.558;13.188;2023-05-10T07:15:32;6.93;;;2.17;;
828;SDS011;396;52.558;13.188;2023-05-10T07:17:59;5.00;;;1.53;;
828;SDS011;396;52.558;13.188;2023-05-10T07:20:26;7.40;;;2.43;;
828;SDS011;396;52.558;13.188;2023-05-10T07:22:53;26.67;;;2.37;;
828;SDS011;396;52.558;13.188;2023-05-10T07:25:21;5.87;;;1.60;;
828;SDS011;396;52.558;13.188;2023-05-10T07:27:47;10.07;;;2.23;;
828;SDS011;396;52.558;13.188;2023-05-10T07:30:14;12.33;;;1.70;;
828;SDS011;396;52.558;13.188;2023-05-10T07:32:41;7.37;;;1.90;;
828;SDS011;396;52.558;13.188;2023-05-10T07:35:08;5.50;;;1.60;;
828;SDS011;396;52.558;13.188;2023-05-10T07:37:34;5.90;;;1.90;;
828;SDS011;396;52.558;13.188;2023-05-10T07:40:01;7.57;;;1.97;;
828;SDS011;396;52.558;13.188;2023-05-10T07:42:29;6.23;;;1.63;;
828;SDS011;396;52.558;13.188;2023-05-10T07:44:56;5.87;;;1.90;;
828;SDS011;396;52.558;13.188;2023-05-10T07:47:22;6.30;;;1.97;;
828;SDS011;396;52.558;13.188;2023-05-10T07:49:49;7.20;;;2.20;;
828;SDS011;396;52.558;13.188;2023-05-10T07:52:16;6.60;;;2.60;;
828;SDS011;396;52.558;13.188;2023-05-10T07:54:42;7.70;;;2.17;;
828;SDS011;396;52.558;13.188;2023-05-10T07:57:09;6.43;;;2.10;;
828;SDS011;396;52.558;13.188;2023-05-10T07:59:37;6.63;;;1.63;;
828;SDS011;396;52.558;13.188;2023-05-10T08:02:04;5.33;;;1.40;;
828;SDS011;396;52.558;13.188;2023-05-10T08:04:30;5.63;;;1.70;;
828;SDS011;396;52.558;13.188;2023-05-10T08:06:57;5.70;;;1.77;;
828;SDS011;396;52.558;13.188;2023-05-10T08:09:23;5.23;;;1.67;;
828;SDS011;396;52.558;13.188;2023-05-10T08:11:50;7.07;;;1.90;;
828;SDS011;396;52.558;13.188;2023-05-10T08:14:17;5.40;;;1.70;;
828;SDS011;396;52.558;13.188;2023-05-10T08:16:44;7.40;;;2.30;;
828;SDS011;396;52.558;13.188;2023-05-10T08:19:11;5.57;;;1.83;;
828;SDS011;396;52.558;13.188;2023-05-10T08:21:38;5.50;;;1.63;;
828;SDS011;396;52.558;13.188;2023-05-10T08:24:05;5.73;;;1.70;;
828;SDS011;396;52.558;13.188;2023-05-10T08:26:32;9.70;;;2.03;;
828;SDS011;396;52.558;13.188;2023-05-10T08:28:59;5.33;;;1.83;;
828;SDS011;396;52.558;13.188;2023-05-10T08:31:26;8.93;;;1.57;;
828;SDS011;396;52.558;13.188;2023-05-10T08:33:54;6.20;;;1.80;;
828;SDS011;396;52.558;13.188;2023-05-10T08:36:20;11.40;;;2.07;;
828;SDS011;396;52.558;13.188;2023-05-10T08:38:49;6.73;;;1.73;;
828;SDS011;396;52.558;13.188;2023-05-10T08:41:17;8.20;;;2.20;;
828;SDS011;396;52.558;13.188;2023-05-10T08:43:46;6.57;;;1.50;;
828;SDS011;396;52.558;13.188;2023-05-10T08:46:14;5.70;;;1.77;;
828;SDS011;396;52.558;13.188;2023-05-10T08:48:43;6.37;;;1.70;;
828;SDS011;396;52.558;13.188;2023-05-10T08:51:13;5.90;;;1.70;;
828;SDS011;396;52.558;13.188;2023-05-10T08:53:43;7.30;;;2.10;;
828;SDS011;396;52.558;13.188;2023-05-10T08:56:10;5.83;;;1.80;;
828;SDS011;396;52.558;13.188;2023-05-10T08:58:37;4.93;;;1.30;;
828;SDS011;396;52.558;13.188;2023-05-10T09:01:04;6.23;;;1.93;;
828;SDS011;396;52.558;13.188;2023-05-10T09:03:31;12.97;;;1.87;;
828;SDS011;396;52.558;13.188;2023-05-10T09:05:58;5.93;;;1.57;;
828;SDS011;396;52.558;13.188;2023-05-10T09:08:26;7.77;;;2.30;;
828;SDS011;396;52.558;13.188;2023-05-10T09:10:54;6.30;;;1.77;;
828;SDS011;396;52.558;13.188;2023-05-10T09:13:22;6.93;;;2.13;;
828;SDS011;396;52.558;13.188;2023-05-10T09:15:49;5.40;;;1.50;;
828;SDS011;396;52.558;13.188;2023-05-10T09:18:17;6.40;;;1.60;;
828;SDS011;396;52.558;13.188;2023-05-10T09:20:44;5.33;;;1.63;;
828;SDS011;396;52.558;13.188;2023-05-10T09:23:10;5.60;;;1.70;;
828;SDS011;396;52.558;13.188;2023-05-10T09:25:38;10.37;;;1.87;;
828;SDS011;396;52.558;13.188;2023-05-10T09:28:08;6.87;;;2.13;;
828;SDS011;396;52.558;13.188;2023-05-10T09:30:35;7.93;;;2.00;;
828;SDS011;396;52.558;13.188;2023-05-10T09:33:02;5.67;;;1.67;;
828;SDS011;396;52.558;13.188;2023-05-10T09:35:29;7.17;;;2.20;;
828;SDS011;396;52.558;13.188;2023-05-10T09:37:58;7.23;;;1.77;;
828;SDS011;396;52.558;13.188;2023-05-10T09:40:26;8.03;;;2.13;;
828;SDS011;396;52.558;13.188;2023-05-10T09:42:56;6.23;;;1.83;;
828;SDS011;396;52.558;13.188;2023-05-10T09:45:24;6.17;;;1.83;;
828;SDS011;396;52.558;13.188;2023-05-10T09:47:52;5.10;;;1.30;;
828;SDS011;396;52.558;13.188;2023-05-10T09:50:19;6.03;;;1.73;;
828;SDS011;396;52.558;13.188;2023-05-10T09:52:47;10.00;;;2.43;;
828;SDS011;396;52.558;13.188;2023-05-10T09:55:15;5.27;;;1.57;;
828;SDS011;396;52.558;13.188;2023-05-10T09:57:42;5.07;;;1.43;;
828;SDS011;396;52.558;13.188;2023-05-10T10:00:11;5.87;;;1.67;;
828;SDS011;396;52.558;13.188;2023-05-10T10:02:44;5.23;;;1.53;;
828;SDS011;396;52.558;13.188;2023-05-10T10:05:11;5.30;;;1.53;;
828;SDS011;396;52.558;13.188;2023-05-10T10:07:38;6.60;;;1.50;;
828;SDS011;396;52.558;13.188;2023-05-10T10:10:06;6.60;;;1.97;;
828;SDS011;396;52.558;13.188;2023-05-10T10:12:36;6.27;;;1.77;;
828;SDS011;396;52.558;13.188;2023-05-10T10:15:03;6.20;;;1.90;;
828;SDS011;396;52.558;13.188;2023-05-10T10:17:33;5.40;;;1.97;;
828;SDS011;396;52.558;13.188;2023-05-10T10:20:02;5.10;;;1.50;;
828;SDS011;396;52.558;13.188;2023-05-10T10:22:29;5.50;;;1.60;;
828;SDS011;396;52.558;13.188;2023-05-10T10:24:55;4.93;;;1.50;;
828;SDS011;396;52.558;13.188;2023-05-10T10:27:23;6.17;;;2.07;;
828;SDS011;396;52.558;13.188;2023-05-10T10:29:58;6.40;;;2.40;;
828;SDS011;396;52.558;13.188;2023-05-10T10:32:42;6.50;;;2.07;;
828;SDS011;396;52.558;13.188;2023-05-10T10:35:27;5.70;;;1.47;;
828;SDS011;396;52.558;13.188;2023-05-10T10:37:55;6.43;;;2.00;;
828;SDS011;396;52.558;13.188;2023-05-10T10:40:22;7.37;;;1.67;;
828;SDS011;396;52.558;13.188;2023-05-10T10:42:51;6.13;;;1.97;;
828;SDS011;396;52.558;13.188;2023-05-10T10:45:19;8.10;;;2.60;;
828;SDS011;396;52.558;13.188;2023-05-10T10:47:46;5.20;;;1.27;;
828;SDS011;396;52.558;13.188;2023-05-10T10:50:14;5.13;;;1.20;;
828;SDS011;396;52.558;13.188;2023-05-10T10:52:42;5.77;;;1.63;;
828;SDS011;396;52.558;13.188;2023-05-10T10:55:09;5.70;;;1.70;;
828;SDS011;396;52.558;13.188;2023-05-10T10:57:44;5.90;;;1.73;;
828;SDS011;396;52.558;13.188;2023-05-10T11:00:18;5.30;;;1.60;;
828;SDS011;396;52.558;13.188;2023-05-10T11:02:46;6.57;;;1.57;;
828;SDS011;396;52.558;13.188;2023-05-10T11:08:10;5.03;;;1.40;;
828;SDS011;396;52.558;13.188;2023-05-10T11:10:40;6.60;;;2.07;;
828;SDS011;396;52.558;13.188;2023-05-10T11:13:14;6.30;;;1.67;;
828;SDS011;396;52.558;13.188;2023-05-10T11:15:47;5.27;;;1.50;;
828;SDS011;396;52.558;13.188;2023-05-10T11:18:18;5.60;;;1.83;;
828;SDS011;396;52.558;13.188;2023-05-10T11:20:51;5.70;;;1.70;;
828;SDS011;396;52.558;13.188;2023-05-10T11:23:19;4.73;;;1.33;;
828;SDS011;396;52.558;13.188;2023-05-10T11:25:46;5.03;;;1.60;;
828;SDS011;396;52.558;13.188;2023-05-10T11:28:14;4.90;;;1.30;;
828;SDS011;396;52.558;13.188;2023-05-10T11:30:43;5.73;;;1.47;;
828;SDS011;396;52.558;13.188;2023-05-10T11:33:14;5.50;;;1.83;;
828;SDS011;396;52.558;13.188;2023-05-10T11:35:41;4.60;;;1.27;;
828;SDS011;396;52.558;13.188;2023-05-10T11:38:10;4.90;;;1.60;;
828;SDS011;396;52.558;13.188;2023-05-10T11:40:37;5.67;;;1.93;;
828;SDS011;396;52.558;13.188;2023-05-10T11:43:05;6.93;;;1.40;;
828;SDS011;396;52.558;13.188;2023-05-10T11:45:31;4.60;;;1.23;;
828;SDS011;396;52.558;13.188;2023-05-10T11:47:59;4.47;;;1.20;;
828;SDS011;396;52.558;13.188;2023-05-10T11:50:26;5.23;;;1.27;;
828;SDS011;396;52.558;13.188;2023-05-10T11:52:52;6.43;;;1.40;;
828;SDS011;396;52.558;13.188;2023-05-10T11:55:21;8.23;;;1.93;;
828;SDS011;396;52.558;13.188;2023-05-10T11:57:51;5.50;;;1.60;;
828;SDS011;396;52.558;13.188;2023-05-10T12:00:18;5.30;;;1.13;;
828;SDS011;396;52.558;13.188;2023-05-10T12:02:45;5.57;;;1.57;;
828;SDS011;396;52.558;13.188;2023-05-10T12:05:11;4.30;;;1.10;;
828;SDS011;396;52.558;13.188;2023-05-10T12:07:39;5.90;;;1.40;;
828;SDS011;396;52.558;13.188;2023-05-10T12:10:06;6.57;;;1.23;;
828;SDS011;396;52.558;13.188;2023-05-10T12:12:38;5.43;;;1.50;;
828;SDS011;396;52.558;13.188;2023-05-10T12:15:10;4.70;;;1.60;;
828;SDS011;396;52.558;13.188;2023-05-10T12:17:37;4.57;;;1.20;;
828;SDS011;396;52.558;13.188;2023-05-10T12:20:14;4.67;;;1.50;;
828;SDS011;396;52.558;13.188;2023-05-10T12:22:43;6.53;;;1.63;;
828;SDS011;396;52.558;13.188;2023-05-10T12:25:11;4.67;;;1.13;;
828;SDS011;396;52.558;13.188;2023-05-10T12:27:39;5.30;;;1.17;;
828;SDS011;396;52.558;13.188;2023-05-10T12:30:06;4.73;;;1.50;;
828;SDS011;396;52.558;13.188;2023-05-10T12:32:37;5.90;;;1.60;;
828;SDS011;396;52.558;13.188;2023-05-10T12:35:04;5.37;;;1.43;;
828;SDS011;396;52.558;13.188;2023-05-10T12:37:31;4.10;;;0.90;;
828;SDS011;396;52.558;13.188;2023-05-10T12:40:00;6.23;;;1.53;;
828;SDS011;396;52.558;13.188;2023-05-10T12:42:30;5.07;;;1.00;;
828;SDS011;396;52.558;13.188;2023-05-10T12:44:58;5.07;;;1.67;;
828;SDS011;396;52.558;13.188;2023-05-10T12:47:24;4.90;;;1.20;;
828;SDS011;396;52.558;13.188;2023-05-10T12:49:51;6.20;;;1.57;;
828;SDS011;396;52.558;13.188;2023-05-10T12:52:17;5.07;;;1.53;;
828;SDS011;396;52.558;13.188;2023-05-10T12:54:44;5.30;;;1.70;;
828;SDS011;396;52.558;13.188;2023-05-10T12:57:10;4.40;;;1.20;;
828;SDS011;396;52.558;13.188;2023-05-10T12:59:37;4.47;;;1.30;;
828;SDS011;396;52.558;13.188;2023-05-10T13:02:05;4.47;;;1.13;;
828;SDS011;396;52.558;13.188;2023-05-10T13:04:32;5.50;;;0.90;;
828;SDS011;396;52.558;13.188;2023-05-10T13:06:59;4.93;;;1.43;;
828;SDS011;396;52.558;13.188;2023-05-10T13:09:26;4.70;;;1.20;;
828;SDS011;396;52.558;13.188;2023-05-10T13:11:54;4.00;;;0.97;;
828;SDS011;396;52.558;13.188;2023-05-10T13:14:21;5.20;;;1.50;;
828;SDS011;396;52.558;13.188;2023-05-10T13:16:47;4.53;;;1.60;;
828;SDS011;396;52.558;13.188;2023-05-10T13:19:15;4.60;;;1.30;;
828;SDS011;396;52.558;13.188;2023-05-10T13:21:43;4.73;;;1.40;;
828;SDS011;396;52.558;13.188;2023-05-10T13:24:10;5.17;;;1.43;;
828;SDS011;396;52.558;13.188;2023-05-10T13:26:38;4.37;;;1.03;;
828;SDS011;396;52.558;13.188;2023-05-10T13:29:05;4.50;;;1.30;;
828;SDS011;396;52.558;13.188;2023-05-10T13:31:32;4.77;;;1.20;;
828;SDS011;396;52.558;13.188;2023-05-10T13:33:59;5.20;;;1.33;;
828;SDS011;396;52.558;13.188;2023-05-10T13:36:27;5.00;;;1.40;;
828;SDS011;396;52.558;13.188;2023-05-10T13:38:54;4.10;;;1.20;;
828;SDS011;396;52.558;13.188;2023-05-10T13:41:20;4.93;;;1.50;;
828;SDS011;396;52.558;13.188;2023-05-10T13:43:47;4.10;;;1.20;;
828;SDS011;396;52.558;13.188;2023-05-10T13:46:14;5.07;;;1.33;;
828;SDS011;396;52.558;13.188;2023-05-10T13:48:41;4.77;;;1.30;;
828;SDS011;396;52.558;13.188;2023-05-10T13:51:07;4.90;;;1.53;;
828;SDS011;396;52.558;13.188;2023-05-10T13:53:35;5.73;;;1.30;;
828;SDS011;396;52.558;13.188;2023-05-10T13:56:03;8.80;;;1.33;;
828;SDS011;396;52.558;13.188;2023-05-10T13:58:30;11.43;;;1.73;;
828;SDS011;396;52.558;13.188;2023-05-10T14:00:57;4.50;;;1.47;;
828;SDS011;396;52.558;13.188;2023-05-10T14:03:23;6.17;;;1.80;;
828;SDS011;396;52.558;13.188;2023-05-10T14:05:50;4.90;;;1.40;;
828;SDS011;396;52.558;13.188;2023-05-10T14:08:17;4.97;;;1.30;;
828;SDS011;396;52.558;13.188;2023-05-10T14:10:45;4.70;;;1.37;;
828;SDS011;396;52.558;13.188;2023-05-10T14:13:11;4.57;;;1.17;;
828;SDS011;396;52.558;13.188;2023-05-10T14:15:38;6.13;;;1.47;;
828;SDS011;396;52.558;13.188;2023-05-10T14:18:04;4.20;;;1.07;;
828;SDS011;396;52.558;13.188;2023-05-10T14:20:31;5.60;;;1.90;;
828;SDS011;396;52.558;13.188;2023-05-10T14:22:58;5.20;;;1.60;;
828;SDS011;396;52.558;13.188;2023-05-10T14:25:25;4.33;;;1.30;;
828;SDS011;396;52.558;13.188;2023-05-10T14:27:53;5.40;;;1.57;;
828;SDS011;396;52.558;13.188;2023-05-10T14:30:20;7.20;;;1.50;;
828;SDS011;396;52.558;13.188;2023-05-10T14:32:46;6.30;;;1.60;;
828;SDS011;396;52.558;13.188;2023-05-10T14:35:13;8.57;;;1.40;;
828;SDS011;396;52.558;13.188;2023-05-10T14:37:40;4.87;;;1.63;;
828;SDS011;396;52.558;13.188;2023-05-10T14:40:07;6.30;;;1.60;;
828;SDS011;396;52.558;13.188;2023-05-10T14:42:34;6.23;;;1.40;;
828;SDS011;396;52.558;13.188;2023-05-10T14:45:02;4.97;;;1.27;;
828;SDS011;396;52.558;13.188;2023-05-10T14:47:30;5.30;;;1.40;;
828;SDS011;396;52.558;13.188;2023-05-10T14:49:56;4.53;;;1.50;;
828;SDS011;396;52.558;13.188;2023-05-10T14:52:23;5.23;;;1.67;;
828;SDS011;396;52.558;13.188;2023-05-10T14:54:49;5.63;;;1.63;;
828;SDS011;396;52.558;13.188;2023-05-10T14:57:16;4.90;;;1.47;;
828;SDS011;396;52.558;13.188;2023-05-10T14:59:43;5.63;;;1.60;;
828;SDS011;396;52.558;13.188;2023-05-10T15:02:11;5.47;;;2.03;;
828;SDS011;396;52.558;13.188;2023-05-10T15:04:37;4.70;;;1.50;;
828;SDS011;396;52.558;13.188;2023-05-10T15:07:04;5.37;;;1.80;;
828;SDS011;396;52.558;13.188;2023-05-10T15:09:30;5.40;;;1.63;;
828;SDS011;396;52.558;13.188;2023-05-10T15:11:57;6.10;;;1.50;;
828;SDS011;396;52.558;13.188;2023-05-10T15:14:24;5.53;;;1.20;;
828;SDS011;396;52.558;13.188;2023-05-10T15:16:50;5.73;;;1.80;;
828;SDS011;396;52.558;13.188;2023-05-10T15:19:28;5.37;;;1.60;;
828;SDS011;396;52.558;13.188;2023-05-10T15:21:54;5.43;;;1.87;;
828;SDS011;396;52.558;13.188;2023-05-10T15:24:21;5.97;;;2.00;;
828;SDS011;396;52.558;13.188;2023-05-10T15:26:48;5.97;;;1.63;;
828;SDS011;396;52.558;13.188;2023-05-10T15:29:14;5.20;;;1.20;;
828;SDS011;396;52.558;13.188;2023-05-10T15:31:44;5.87;;;1.93;;
828;SDS011;396;52.558;13.188;2023-05-10T15:34:11;5.33;;;1.70;;